sensor_id;sensor_type;location;lat;lon;timestamp;P1;durP1;ratioP1;P2;durP2;ratioP2
17965;SDS011;9108;53.204;10.424;2023-04-06T00:01:33;8.82;;;3.90;;
17965;SDS011;9108;53.204;10.424;2023-04-06T00:04:00;6.78;;;3.50;;
17965;SDS011;9108;53.204;10.424;2023-04-06T00:06:28;7.47;;;3.70;;
17965;SDS011;9108;53.204;10.424;2023-04-06T00:08:55;7.37;;;3.40;;
17965;SDS011;9108;53.204;10.424;2023-04-06T00:11:22;8.18;;;3.50;;
17965;SDS011;9108;53.204;10.424;2023-04-06T00:13:51;7.03;;;3.50;;
17965;SDS011;9108;53.204;10.424;2023-04-06T00:16:19;8.52;;;3.70;;
17965;SDS011;9108;53.204;10.424;2023-04-06T00:18:49;9.65;;;4.40;;
17965;SDS011;9108;53.204;10.424;2023-04-06T00:21:16;10.27;;;4.60;;
17965;SDS011;9108;53.204;10.424;2023-04-06T00:23:43;13.27;;;5.30;;
17965;SDS011;9108;53.204;10.424;2023-04-06T00:26:11;12.00;;;4.72;;
17965;SDS011;9108;53.204;10.424;2023-04-06T00:28:38;10.10;;;4.70;;
17965;SDS011;9108;53.204;10.424;2023-04-06T00:31:07;12.57;;;4.82;;
17965;SDS011;9108;53.204;10.424;2023-04-06T00:33:34;13.43;;;5.10;;
17965;SDS011;9108;53.204;10.424;2023-04-06T00:36:01;14.13;;;5.28;;
17965;SDS011;9108;53.204;10.424;2023-04-06T00:38:28;11.85;;;5.47;;
17965;SDS011;9108;53.204;10.424;2023-04-06T00:40:55;10.98;;;5.20;;
17965;SDS011;9108;53.204;10.424;2023-04-06T00:43:23;10.35;;;4.97;;
17965;SDS011;9108;53.204;10.424;2023-04-06T00:45:50;9.95;;;5.07;;
17965;SDS011;9108;53.204;10.424;2023-04-06T00:48:19;10.53;;;5.23;;
17965;SDS011;9108;53.204;10.424;2023-04-06T00:50:46;8.30;;;4.45;;
17965;SDS011;9108;53.204;10.424;2023-04-06T00:53:13;8.43;;;4.40;;
17965;SDS011;9108;53.204;10.424;2023-04-06T00:55:41;10.23;;;4.47;;
17965;SDS011;9108;53.204;10.424;2023-04-06T00:58:08;10.18;;;4.65;;
17965;SDS011;9108;53.204;10.424;2023-04-06T01:00:35;8.85;;;4.50;;
17965;SDS011;9108;53.204;10.424;2023-04-06T01:03:02;11.52;;;4.63;;
17965;SDS011;9108;53.204;10.424;2023-04-06T01:05:34;9.75;;;4.30;;
17965;SDS011;9108;53.204;10.424;2023-04-06T01:08:05;9.73;;;4.57;;
17965;SDS011;9108;53.204;10.424;2023-04-06T01:10:32;9.73;;;4.67;;
17965;SDS011;9108;53.204;10.424;2023-04-06T01:12:59;8.73;;;4.25;;
17965;SDS011;9108;53.204;10.424;2023-04-06T01:15:27;8.68;;;4.47;;
17965;SDS011;9108;53.204;10.424;2023-04-06T01:17:55;10.77;;;4.70;;
17965;SDS011;9108;53.204;10.424;2023-04-06T01:20:22;10.02;;;4.60;;
17965;SDS011;9108;53.204;10.424;2023-04-06T01:22:52;9.48;;;4.50;;
17965;SDS011;9108;53.204;10.424;2023-04-06T01:25:19;9.55;;;4.60;;
17965;SDS011;9108;53.204;10.424;2023-04-06T01:27:47;9.13;;;4.70;;
17965;SDS011;9108;53.204;10.424;2023-04-06T01:30:14;9.73;;;4.80;;
17965;SDS011;9108;53.204;10.424;2023-04-06T01:32:42;9.98;;;5.00;;
17965;SDS011;9108;53.204;10.424;2023-04-06T01:35:09;10.93;;;5.30;;
17965;SDS011;9108;53.204;10.424;2023-04-06T01:37:37;11.73;;;5.30;;
17965;SDS011;9108;53.204;10.424;2023-04-06T01:40:06;9.60;;;5.03;;
17965;SDS011;9108;53.204;10.424;2023-04-06T01:42:34;10.90;;;5.38;;
17965;SDS011;9108;53.204;10.424;2023-04-06T01:45:01;10.00;;;5.00;;
17965;SDS011;9108;53.204;10.424;2023-04-06T01:47:28;12.18;;;4.80;;
17965;SDS011;9108;53.204;10.424;2023-04-06T01:49:55;12.93;;;5.88;;
17965;SDS011;9108;53.204;10.424;2023-04-06T01:52:23;26.45;;;10.70;;
17965;SDS011;9108;53.204;10.424;2023-04-06T01:54:50;48.28;;;16.25;;
17965;SDS011;9108;53.204;10.424;2023-04-06T01:57:18;87.15;;;26.70;;
17965;SDS011;9108;53.204;10.424;2023-04-06T01:59:46;70.07;;;22.50;;
17965;SDS011;9108;53.204;10.424;2023-04-06T02:02:13;57.67;;;18.23;;
17965;SDS011;9108;53.204;10.424;2023-04-06T02:04:40;58.50;;;17.80;;
17965;SDS011;9108;53.204;10.424;2023-04-06T02:07:07;33.70;;;11.47;;
17965;SDS011;9108;53.204;10.424;2023-04-06T02:09:35;23.20;;;9.15;;
17965;SDS011;9108;53.204;10.424;2023-04-06T02:12:02;47.55;;;16.30;;
17965;SDS011;9108;53.204;10.424;2023-04-06T02:14:31;39.88;;;15.63;;
17965;SDS011;9108;53.204;10.424;2023-04-06T02:16:58;21.90;;;10.30;;
17965;SDS011;9108;53.204;10.424;2023-04-06T02:19:25;18.55;;;8.77;;
17965;SDS011;9108;53.204;10.424;2023-04-06T02:21:53;16.83;;;7.37;;
17965;SDS011;9108;53.204;10.424;2023-04-06T02:24:20;12.07;;;6.47;;
17965;SDS011;9108;53.204;10.424;2023-04-06T02:26:47;13.93;;;6.95;;
17965;SDS011;9108;53.204;10.424;2023-04-06T02:29:15;11.80;;;6.40;;
17965;SDS011;9108;53.204;10.424;2023-04-06T02:31:43;13.10;;;7.65;;
17965;SDS011;9108;53.204;10.424;2023-04-06T02:34:10;11.95;;;6.68;;
17965;SDS011;9108;53.204;10.424;2023-04-06T02:36:42;12.30;;;7.25;;
17965;SDS011;9108;53.204;10.424;2023-04-06T02:39:10;12.57;;;6.53;;
17965;SDS011;9108;53.204;10.424;2023-04-06T02:41:37;11.47;;;6.40;;
17965;SDS011;9108;53.204;10.424;2023-04-06T02:44:07;12.10;;;6.25;;
17965;SDS011;9108;53.204;10.424;2023-04-06T02:46:35;12.85;;;6.40;;
17965;SDS011;9108;53.204;10.424;2023-04-06T02:49:03;12.60;;;5.78;;
17965;SDS011;9108;53.204;10.424;2023-04-06T02:51:30;10.57;;;5.43;;
17965;SDS011;9108;53.204;10.424;2023-04-06T02:54:00;11.80;;;5.72;;
17965;SDS011;9108;53.204;10.424;2023-04-06T02:56:29;10.90;;;5.72;;
17965;SDS011;9108;53.204;10.424;2023-04-06T02:58:57;11.30;;;5.73;;
17965;SDS011;9108;53.204;10.424;2023-04-06T03:01:24;12.30;;;5.72;;
17965;SDS011;9108;53.204;10.424;2023-04-06T03:03:51;13.60;;;6.70;;
17965;SDS011;9108;53.204;10.424;2023-04-06T03:06:20;13.32;;;6.55;;
17965;SDS011;9108;53.204;10.424;2023-04-06T03:08:47;10.68;;;6.10;;
17965;SDS011;9108;53.204;10.424;2023-04-06T03:11:14;12.18;;;6.15;;
17965;SDS011;9108;53.204;10.424;2023-04-06T03:13:41;11.90;;;6.20;;
17965;SDS011;9108;53.204;10.424;2023-04-06T03:16:10;12.50;;;6.10;;
17965;SDS011;9108;53.204;10.424;2023-04-06T03:18:38;13.23;;;6.70;;
17965;SDS011;9108;53.204;10.424;2023-04-06T03:21:05;10.82;;;5.93;;
17965;SDS011;9108;53.204;10.424;2023-04-06T03:23:33;10.90;;;5.97;;
17965;SDS011;9108;53.204;10.424;2023-04-06T03:26:01;11.20;;;5.95;;
17965;SDS011;9108;53.204;10.424;2023-04-06T03:28:28;12.48;;;5.93;;
17965;SDS011;9108;53.204;10.424;2023-04-06T03:30:56;11.87;;;5.90;;
17965;SDS011;9108;53.204;10.424;2023-04-06T03:33:23;10.65;;;5.75;;
17965;SDS011;9108;53.204;10.424;2023-04-06T03:35:52;10.63;;;5.20;;
17965;SDS011;9108;53.204;10.424;2023-04-06T03:38:19;12.05;;;5.50;;
17965;SDS011;9108;53.204;10.424;2023-04-06T03:40:48;11.55;;;5.55;;
17965;SDS011;9108;53.204;10.424;2023-04-06T03:43:15;10.63;;;5.63;;
17965;SDS011;9108;53.204;10.424;2023-04-06T03:45:45;11.52;;;5.95;;
17965;SDS011;9108;53.204;10.424;2023-04-06T03:48:12;13.98;;;6.88;;
17965;SDS011;9108;53.204;10.424;2023-04-06T03:50:40;11.32;;;6.95;;
17965;SDS011;9108;53.204;10.424;2023-04-06T03:53:07;14.33;;;6.80;;
17965;SDS011;9108;53.204;10.424;2023-04-06T03:55:35;12.35;;;6.80;;
17965;SDS011;9108;53.204;10.424;2023-04-06T03:58:03;11.43;;;6.70;;
17965;SDS011;9108;53.204;10.424;2023-04-06T04:00:31;13.02;;;6.93;;
17965;SDS011;9108;53.204;10.424;2023-04-06T04:02:58;14.15;;;7.07;;
17965;SDS011;9108;53.204;10.424;2023-04-06T04:05:27;15.27;;;7.90;;
17965;SDS011;9108;53.204;10.424;2023-04-06T04:07:54;83.30;;;40.95;;
17965;SDS011;9108;53.204;10.424;2023-04-06T04:10:21;16.38;;;8.15;;
17965;SDS011;9108;53.204;10.424;2023-04-06T04:12:48;15.43;;;8.23;;
17965;SDS011;9108;53.204;10.424;2023-04-06T04:15:17;16.23;;;8.50;;
17965;SDS011;9108;53.204;10.424;2023-04-06T04:17:44;20.77;;;10.05;;
17965;SDS011;9108;53.204;10.424;2023-04-06T04:20:14;16.38;;;8.70;;
17965;SDS011;9108;53.204;10.424;2023-04-06T04:22:41;19.48;;;11.13;;
17965;SDS011;9108;53.204;10.424;2023-04-06T04:25:09;17.57;;;8.83;;
17965;SDS011;9108;53.204;10.424;2023-04-06T04:27:36;23.10;;;13.35;;
17965;SDS011;9108;53.204;10.424;2023-04-06T04:30:04;17.80;;;7.30;;
17965;SDS011;9108;53.204;10.424;2023-04-06T04:32:33;16.05;;;8.30;;
17965;SDS011;9108;53.204;10.424;2023-04-06T04:35:00;18.48;;;9.90;;
17965;SDS011;9108;53.204;10.424;2023-04-06T04:37:28;16.77;;;9.77;;
17965;SDS011;9108;53.204;10.424;2023-04-06T04:39:55;16.15;;;9.57;;
17965;SDS011;9108;53.204;10.424;2023-04-06T04:42:22;17.63;;;9.60;;
17965;SDS011;9108;53.204;10.424;2023-04-06T04:44:50;15.60;;;8.95;;
17965;SDS011;9108;53.204;10.424;2023-04-06T04:47:17;17.15;;;9.68;;
17965;SDS011;9108;53.204;10.424;2023-04-06T04:49:45;18.80;;;9.45;;
17965;SDS011;9108;53.204;10.424;2023-04-06T04:52:13;15.45;;;8.55;;
17965;SDS011;9108;53.204;10.424;2023-04-06T04:54:40;15.55;;;8.57;;
17965;SDS011;9108;53.204;10.424;2023-04-06T04:57:07;15.10;;;8.20;;
17965;SDS011;9108;53.204;10.424;2023-04-06T04:59:34;13.87;;;7.23;;
17965;SDS011;9108;53.204;10.424;2023-04-06T05:02:02;14.50;;;7.63;;
17965;SDS011;9108;53.204;10.424;2023-04-06T05:04:29;14.32;;;8.00;;
17965;SDS011;9108;53.204;10.424;2023-04-06T05:07:04;15.23;;;8.25;;
17965;SDS011;9108;53.204;10.424;2023-04-06T05:09:31;13.50;;;7.18;;
17965;SDS011;9108;53.204;10.424;2023-04-06T05:11:59;15.48;;;8.20;;
17965;SDS011;9108;53.204;10.424;2023-04-06T05:14:29;16.15;;;8.75;;
17965;SDS011;9108;53.204;10.424;2023-04-06T05:16:56;16.20;;;8.55;;
17965;SDS011;9108;53.204;10.424;2023-04-06T05:19:23;17.05;;;9.13;;
17965;SDS011;9108;53.204;10.424;2023-04-06T05:21:50;18.08;;;9.00;;
17965;SDS011;9108;53.204;10.424;2023-04-06T05:24:24;16.15;;;8.77;;
17965;SDS011;9108;53.204;10.424;2023-04-06T05:26:52;15.52;;;7.85;;
17965;SDS011;9108;53.204;10.424;2023-04-06T05:29:19;13.93;;;7.30;;
17965;SDS011;9108;53.204;10.424;2023-04-06T05:31:50;13.48;;;6.82;;
17965;SDS011;9108;53.204;10.424;2023-04-06T05:34:17;10.70;;;6.20;;
17965;SDS011;9108;53.204;10.424;2023-04-06T05:36:45;10.67;;;6.00;;
17965;SDS011;9108;53.204;10.424;2023-04-06T05:39:12;15.75;;;7.40;;
17965;SDS011;9108;53.204;10.424;2023-04-06T05:41:41;16.33;;;7.82;;
17965;SDS011;9108;53.204;10.424;2023-04-06T05:44:08;22.17;;;9.00;;
17965;SDS011;9108;53.204;10.424;2023-04-06T05:46:35;22.80;;;10.35;;
17965;SDS011;9108;53.204;10.424;2023-04-06T05:49:03;21.63;;;9.57;;
17965;SDS011;9108;53.204;10.424;2023-04-06T05:51:30;12.55;;;5.90;;
17965;SDS011;9108;53.204;10.424;2023-04-06T05:54:00;9.93;;;4.93;;
17965;SDS011;9108;53.204;10.424;2023-04-06T05:56:30;12.60;;;5.05;;
17965;SDS011;9108;53.204;10.424;2023-04-06T05:58:58;11.10;;;4.78;;
17965;SDS011;9108;53.204;10.424;2023-04-06T06:01:26;11.43;;;5.05;;
17965;SDS011;9108;53.204;10.424;2023-04-06T06:03:54;10.07;;;5.20;;
17965;SDS011;9108;53.204;10.424;2023-04-06T06:06:21;9.63;;;5.30;;
17965;SDS011;9108;53.204;10.424;2023-04-06T06:08:50;10.02;;;5.20;;
17965;SDS011;9108;53.204;10.424;2023-04-06T06:11:19;11.73;;;5.25;;
17965;SDS011;9108;53.204;10.424;2023-04-06T06:13:46;9.93;;;4.90;;
17965;SDS011;9108;53.204;10.424;2023-04-06T06:16:18;10.05;;;4.72;;
17965;SDS011;9108;53.204;10.424;2023-04-06T06:18:45;9.63;;;4.90;;
17965;SDS011;9108;53.204;10.424;2023-04-06T06:21:12;9.48;;;4.82;;
17965;SDS011;9108;53.204;10.424;2023-04-06T06:23:42;9.07;;;4.53;;
17965;SDS011;9108;53.204;10.424;2023-04-06T06:26:09;7.00;;;4.20;;
17965;SDS011;9108;53.204;10.424;2023-04-06T06:28:36;8.95;;;4.43;;
17965;SDS011;9108;53.204;10.424;2023-04-06T06:31:03;8.65;;;4.40;;
17965;SDS011;9108;53.204;10.424;2023-04-06T06:33:32;14.05;;;5.35;;
17965;SDS011;9108;53.204;10.424;2023-04-06T06:36:00;9.32;;;4.90;;
17965;SDS011;9108;53.204;10.424;2023-04-06T06:38:27;7.28;;;4.30;;
17965;SDS011;9108;53.204;10.424;2023-04-06T06:40:54;31.48;;;15.68;;
17965;SDS011;9108;53.204;10.424;2023-04-06T06:43:21;8.57;;;4.53;;
17965;SDS011;9108;53.204;10.424;2023-04-06T06:45:49;9.98;;;5.80;;
17965;SDS011;9108;53.204;10.424;2023-04-06T06:48:16;8.50;;;4.60;;
17965;SDS011;9108;53.204;10.424;2023-04-06T06:50:45;8.27;;;4.07;;
17965;SDS011;9108;53.204;10.424;2023-04-06T06:53:19;7.88;;;3.78;;
17965;SDS011;9108;53.204;10.424;2023-04-06T06:55:49;8.60;;;4.13;;
17965;SDS011;9108;53.204;10.424;2023-04-06T06:58:17;8.45;;;3.90;;
17965;SDS011;9108;53.204;10.424;2023-04-06T07:00:45;7.63;;;3.80;;
17965;SDS011;9108;53.204;10.424;2023-04-06T07:03:21;6.90;;;3.80;;
17965;SDS011;9108;53.204;10.424;2023-04-06T07:05:50;7.80;;;3.67;;
17965;SDS011;9108;53.204;10.424;2023-04-06T07:08:19;7.45;;;3.80;;
17965;SDS011;9108;53.204;10.424;2023-04-06T07:10:46;5.50;;;3.75;;
17965;SDS011;9108;53.204;10.424;2023-04-06T07:13:13;7.97;;;4.00;;
17965;SDS011;9108;53.204;10.424;2023-04-06T07:15:44;7.60;;;3.90;;
17965;SDS011;9108;53.204;10.424;2023-04-06T07:18:11;9.27;;;3.83;;
17965;SDS011;9108;53.204;10.424;2023-04-06T07:20:38;9.40;;;4.07;;
17965;SDS011;9108;53.204;10.424;2023-04-06T07:23:07;8.18;;;3.90;;
17965;SDS011;9108;53.204;10.424;2023-04-06T07:25:34;9.60;;;4.10;;
17965;SDS011;9108;53.204;10.424;2023-04-06T07:28:02;10.27;;;4.20;;
17965;SDS011;9108;53.204;10.424;2023-04-06T07:30:29;6.45;;;3.95;;
17965;SDS011;9108;53.204;10.424;2023-04-06T07:32:56;10.07;;;4.00;;
17965;SDS011;9108;53.204;10.424;2023-04-06T07:35:24;7.13;;;4.00;;
17965;SDS011;9108;53.204;10.424;2023-04-06T07:37:52;7.97;;;3.80;;
17965;SDS011;9108;53.204;10.424;2023-04-06T07:40:20;8.45;;;4.07;;
17965;SDS011;9108;53.204;10.424;2023-04-06T07:42:48;9.80;;;3.90;;
17965;SDS011;9108;53.204;10.424;2023-04-06T07:45:15;8.93;;;3.80;;
17965;SDS011;9108;53.204;10.424;2023-04-06T07:47:42;8.20;;;4.25;;
17965;SDS011;9108;53.204;10.424;2023-04-06T07:50:10;8.07;;;4.20;;
17965;SDS011;9108;53.204;10.424;2023-04-06T07:52:38;8.30;;;4.20;;
17965;SDS011;9108;53.204;10.424;2023-04-06T07:55:07;8.85;;;4.75;;
17965;SDS011;9108;53.204;10.424;2023-04-06T07:57:36;7.88;;;3.90;;
17965;SDS011;9108;53.204;10.424;2023-04-06T08:00:03;7.57;;;3.92;;
17965;SDS011;9108;53.204;10.424;2023-04-06T08:02:31;8.00;;;4.60;;
17965;SDS011;9108;53.204;10.424;2023-04-06T08:04:58;10.00;;;5.50;;
17965;SDS011;9108;53.204;10.424;2023-04-06T08:07:26;9.07;;;4.35;;
17965;SDS011;9108;53.204;10.424;2023-04-06T08:09:53;17.55;;;10.65;;
17965;SDS011;9108;53.204;10.424;2023-04-06T08:12:20;13.77;;;9.57;;
17965;SDS011;9108;53.204;10.424;2023-04-06T08:14:49;12.90;;;6.97;;
17965;SDS011;9108;53.204;10.424;2023-04-06T08:17:16;15.55;;;9.95;;
17965;SDS011;9108;53.204;10.424;2023-04-06T08:19:43;14.05;;;8.00;;
17965;SDS011;9108;53.204;10.424;2023-04-06T08:22:10;9.00;;;4.38;;
17965;SDS011;9108;53.204;10.424;2023-04-06T08:24:38;7.97;;;4.75;;
17965;SDS011;9108;53.204;10.424;2023-04-06T08:27:05;7.93;;;4.90;;
17965;SDS011;9108;53.204;10.424;2023-04-06T08:29:32;10.57;;;5.05;;
17965;SDS011;9108;53.204;10.424;2023-04-06T08:32:01;9.50;;;5.47;;
17965;SDS011;9108;53.204;10.424;2023-04-06T08:34:30;10.38;;;5.38;;
17965;SDS011;9108;53.204;10.424;2023-04-06T08:36:58;10.45;;;6.18;;
17965;SDS011;9108;53.204;10.424;2023-04-06T08:39:25;8.45;;;4.90;;
17965;SDS011;9108;53.204;10.424;2023-04-06T08:41:52;10.45;;;4.95;;
17965;SDS011;9108;53.204;10.424;2023-04-06T08:44:22;7.23;;;4.40;;
17965;SDS011;9108;53.204;10.424;2023-04-06T08:46:49;10.18;;;4.70;;
17965;SDS011;9108;53.204;10.424;2023-04-06T08:49:20;7.77;;;4.60;;
17965;SDS011;9108;53.204;10.424;2023-04-06T08:51:48;11.27;;;5.20;;
17965;SDS011;9108;53.204;10.424;2023-04-06T08:54:15;9.25;;;5.43;;
17965;SDS011;9108;53.204;10.424;2023-04-06T08:56:43;20.63;;;11.57;;
17965;SDS011;9108;53.204;10.424;2023-04-06T08:59:10;12.32;;;6.50;;
17965;SDS011;9108;53.204;10.424;2023-04-06T09:01:38;13.35;;;7.90;;
17965;SDS011;9108;53.204;10.424;2023-04-06T09:04:07;8.88;;;4.78;;
17965;SDS011;9108;53.204;10.424;2023-04-06T09:06:37;7.83;;;4.60;;
17965;SDS011;9108;53.204;10.424;2023-04-06T09:09:05;8.52;;;4.63;;
17965;SDS011;9108;53.204;10.424;2023-04-06T09:11:43;8.60;;;4.80;;
17965;SDS011;9108;53.204;10.424;2023-04-06T09:14:10;9.52;;;4.70;;
17965;SDS011;9108;53.204;10.424;2023-04-06T09:16:41;7.18;;;4.32;;
17965;SDS011;9108;53.204;10.424;2023-04-06T09:19:09;9.15;;;4.90;;
17965;SDS011;9108;53.204;10.424;2023-04-06T09:21:38;8.85;;;4.70;;
17965;SDS011;9108;53.204;10.424;2023-04-06T09:24:06;9.23;;;5.33;;
17965;SDS011;9108;53.204;10.424;2023-04-06T09:26:45;8.85;;;5.40;;
17965;SDS011;9108;53.204;10.424;2023-04-06T09:29:21;10.45;;;5.50;;
17965;SDS011;9108;53.204;10.424;2023-04-06T09:31:49;8.10;;;4.90;;
17965;SDS011;9108;53.204;10.424;2023-04-06T09:34:22;8.50;;;4.77;;
17965;SDS011;9108;53.204;10.424;2023-04-06T09:36:51;7.85;;;4.00;;
17965;SDS011;9108;53.204;10.424;2023-04-06T09:39:24;8.43;;;4.82;;
17965;SDS011;9108;53.204;10.424;2023-04-06T09:41:54;8.45;;;4.60;;
17965;SDS011;9108;53.204;10.424;2023-04-06T09:44:22;9.48;;;5.00;;
17965;SDS011;9108;53.204;10.424;2023-04-06T09:46:50;10.80;;;5.40;;
17965;SDS011;9108;53.204;10.424;2023-04-06T09:49:20;9.32;;;5.45;;
17965;SDS011;9108;53.204;10.424;2023-04-06T09:51:48;10.40;;;5.20;;
17965;SDS011;9108;53.204;10.424;2023-04-06T09:54:22;8.68;;;5.03;;
17965;SDS011;9108;53.204;10.424;2023-04-06T09:56:55;8.57;;;5.00;;
17965;SDS011;9108;53.204;10.424;2023-04-06T09:59:25;9.05;;;5.10;;
17965;SDS011;9108;53.204;10.424;2023-04-06T10:01:58;8.75;;;4.90;;
17965;SDS011;9108;53.204;10.424;2023-04-06T10:04:39;10.13;;;5.20;;
17965;SDS011;9108;53.204;10.424;2023-04-06T10:07:17;10.15;;;5.63;;
17965;SDS011;9108;53.204;10.424;2023-04-06T10:09:48;10.30;;;5.38;;
17965;SDS011;9108;53.204;10.424;2023-04-06T10:12:16;9.50;;;5.53;;
17965;SDS011;9108;53.204;10.424;2023-04-06T10:14:43;9.13;;;5.55;;
17965;SDS011;9108;53.204;10.424;2023-04-06T10:17:11;11.27;;;5.60;;
17965;SDS011;9108;53.204;10.424;2023-04-06T10:19:42;9.20;;;5.70;;
17965;SDS011;9108;53.204;10.424;2023-04-06T10:22:11;10.10;;;5.60;;
17965;SDS011;9108;53.204;10.424;2023-04-06T10:24:41;10.48;;;5.47;;
17965;SDS011;9108;53.204;10.424;2023-04-06T10:27:11;10.13;;;5.50;;
17965;SDS011;9108;53.204;10.424;2023-04-06T10:29:46;9.25;;;5.03;;
17965;SDS011;9108;53.204;10.424;2023-04-06T10:32:13;9.80;;;6.10;;
17965;SDS011;9108;53.204;10.424;2023-04-06T10:34:41;10.02;;;5.45;;
17965;SDS011;9108;53.204;10.424;2023-04-06T10:37:15;11.88;;;5.70;;
17965;SDS011;9108;53.204;10.424;2023-04-06T10:39:47;11.43;;;5.45;;
17965;SDS011;9108;53.204;10.424;2023-04-06T10:42:15;9.30;;;5.50;;
17965;SDS011;9108;53.204;10.424;2023-04-06T10:44:43;9.95;;;5.65;;
17965;SDS011;9108;53.204;10.424;2023-04-06T10:47:15;11.80;;;5.72;;
17965;SDS011;9108;53.204;10.424;2023-04-06T10:49:46;10.90;;;6.00;;
17965;SDS011;9108;53.204;10.424;2023-04-06T10:52:13;13.20;;;6.40;;
17965;SDS011;9108;53.204;10.424;2023-04-06T10:54:41;10.40;;;5.80;;
17965;SDS011;9108;53.204;10.424;2023-04-06T10:57:12;10.77;;;6.90;;
17965;SDS011;9108;53.204;10.424;2023-04-06T10:59:43;10.05;;;5.70;;
17965;SDS011;9108;53.204;10.424;2023-04-06T11:02:20;11.20;;;5.65;;
17965;SDS011;9108;53.204;10.424;2023-04-06T11:04:54;8.63;;;5.50;;
17965;SDS011;9108;53.204;10.424;2023-04-06T11:07:23;11.15;;;5.78;;
17965;SDS011;9108;53.204;10.424;2023-04-06T11:09:50;10.38;;;5.75;;
17965;SDS011;9108;53.204;10.424;2023-04-06T11:12:21;11.45;;;5.47;;
17965;SDS011;9108;53.204;10.424;2023-04-06T11:14:56;8.98;;;5.60;;
17965;SDS011;9108;53.204;10.424;2023-04-06T11:17:29;9.90;;;5.90;;
17965;SDS011;9108;53.204;10.424;2023-04-06T11:19:56;10.15;;;6.07;;
17965;SDS011;9108;53.204;10.424;2023-04-06T11:22:24;10.55;;;5.30;;
17965;SDS011;9108;53.204;10.424;2023-04-06T11:24:51;11.20;;;6.10;;
17965;SDS011;9108;53.204;10.424;2023-04-06T11:27:19;10.63;;;5.80;;
17965;SDS011;9108;53.204;10.424;2023-04-06T11:29:46;10.50;;;6.07;;
17965;SDS011;9108;53.204;10.424;2023-04-06T11:32:21;9.32;;;6.15;;
17965;SDS011;9108;53.204;10.424;2023-04-06T11:34:49;11.10;;;6.32;;
17965;SDS011;9108;53.204;10.424;2023-04-06T11:37:16;9.47;;;5.80;;
17965;SDS011;9108;53.204;10.424;2023-04-06T11:39:46;12.40;;;5.97;;
17965;SDS011;9108;53.204;10.424;2023-04-06T11:42:20;11.85;;;6.30;;
17965;SDS011;9108;53.204;10.424;2023-04-06T11:44:50;12.10;;;6.38;;
17965;SDS011;9108;53.204;10.424;2023-04-06T11:47:18;12.82;;;6.68;;
17965;SDS011;9108;53.204;10.424;2023-04-06T11:49:48;12.47;;;6.27;;
17965;SDS011;9108;53.204;10.424;2023-04-06T11:52:16;11.57;;;7.03;;
17965;SDS011;9108;53.204;10.424;2023-04-06T11:54:44;12.00;;;7.05;;
17965;SDS011;9108;53.204;10.424;2023-04-06T11:57:15;10.50;;;6.53;;
17965;SDS011;9108;53.204;10.424;2023-04-06T11:59:44;13.50;;;7.10;;
17965;SDS011;9108;53.204;10.424;2023-04-06T12:02:14;10.90;;;6.75;;
17965;SDS011;9108;53.204;10.424;2023-04-06T12:04:42;13.38;;;7.05;;
17965;SDS011;9108;53.204;10.424;2023-04-06T12:07:11;14.67;;;7.27;;
17965;SDS011;9108;53.204;10.424;2023-04-06T12:09:38;12.73;;;7.35;;
17965;SDS011;9108;53.204;10.424;2023-04-06T12:12:06;11.77;;;7.30;;
17965;SDS011;9108;53.204;10.424;2023-04-06T12:14:36;11.15;;;6.95;;
17965;SDS011;9108;53.204;10.424;2023-04-06T12:17:03;12.07;;;7.50;;
17965;SDS011;9108;53.204;10.424;2023-04-06T12:19:32;13.80;;;7.90;;
17965;SDS011;9108;53.204;10.424;2023-04-06T12:22:00;13.57;;;8.02;;
17965;SDS011;9108;53.204;10.424;2023-04-06T12:24:29;14.23;;;7.57;;
17965;SDS011;9108;53.204;10.424;2023-04-06T12:26:57;12.10;;;7.22;;
17965;SDS011;9108;53.204;10.424;2023-04-06T12:29:27;11.88;;;7.22;;
17965;SDS011;9108;53.204;10.424;2023-04-06T12:31:55;13.93;;;7.53;;
17965;SDS011;9108;53.204;10.424;2023-04-06T12:43:44;14.82;;;7.13;;
17965;SDS011;9108;53.204;10.424;2023-04-06T12:46:11;11.50;;;6.95;;
17965;SDS011;9108;53.204;10.424;2023-04-06T12:48:39;12.87;;;7.73;;
17965;SDS011;9108;53.204;10.424;2023-04-06T12:51:06;11.77;;;7.57;;
17965;SDS011;9108;53.204;10.424;2023-04-06T12:53:36;13.18;;;7.57;;
17965;SDS011;9108;53.204;10.424;2023-04-06T12:56:16;11.00;;;7.00;;
17965;SDS011;9108;53.204;10.424;2023-04-06T12:58:47;14.35;;;7.47;;
17965;SDS011;9108;53.204;10.424;2023-04-06T13:01:15;12.02;;;7.45;;
17965;SDS011;9108;53.204;10.424;2023-04-06T13:03:45;12.48;;;6.95;;
17965;SDS011;9108;53.204;10.424;2023-04-06T13:06:15;13.20;;;7.57;;
17965;SDS011;9108;53.204;10.424;2023-04-06T13:08:43;12.27;;;7.03;;
17965;SDS011;9108;53.204;10.424;2023-04-06T13:11:12;14.02;;;7.72;;
17965;SDS011;9108;53.204;10.424;2023-04-06T13:13:39;13.37;;;7.63;;
17965;SDS011;9108;53.204;10.424;2023-04-06T13:16:08;13.10;;;7.40;;
17965;SDS011;9108;53.204;10.424;2023-04-06T13:18:36;12.88;;;7.30;;
17965;SDS011;9108;53.204;10.424;2023-04-06T13:21:03;11.57;;;7.63;;
17965;SDS011;9108;53.204;10.424;2023-04-06T13:23:31;12.50;;;7.70;;
17965;SDS011;9108;53.204;10.424;2023-04-06T13:25:58;11.07;;;7.45;;
17965;SDS011;9108;53.204;10.424;2023-04-06T13:28:42;13.73;;;7.80;;
17965;SDS011;9108;53.204;10.424;2023-04-06T13:31:11;13.00;;;7.78;;
17965;SDS011;9108;53.204;10.424;2023-04-06T13:33:38;14.68;;;7.53;;
17965;SDS011;9108;53.204;10.424;2023-04-06T13:36:06;12.52;;;7.47;;
17965;SDS011;9108;53.204;10.424;2023-04-06T13:38:33;13.27;;;7.53;;
17965;SDS011;9108;53.204;10.424;2023-04-06T13:41:03;11.38;;;7.20;;
17965;SDS011;9108;53.204;10.424;2023-04-06T13:43:31;11.57;;;7.30;;
17965;SDS011;9108;53.204;10.424;2023-04-06T13:45:58;13.82;;;7.88;;
17965;SDS011;9108;53.204;10.424;2023-04-06T13:48:29;12.20;;;7.53;;
17965;SDS011;9108;53.204;10.424;2023-04-06T13:51:07;13.87;;;8.10;;
17965;SDS011;9108;53.204;10.424;2023-04-06T13:53:34;13.48;;;8.05;;
17965;SDS011;9108;53.204;10.424;2023-04-06T13:56:02;12.48;;;7.90;;
17965;SDS011;9108;53.204;10.424;2023-04-06T13:58:32;12.50;;;7.88;;
17965;SDS011;9108;53.204;10.424;2023-04-06T14:01:04;13.90;;;7.90;;
17965;SDS011;9108;53.204;10.424;2023-04-06T14:03:33;16.88;;;8.38;;
17965;SDS011;9108;53.204;10.424;2023-04-06T14:06:01;12.00;;;7.45;;
17965;SDS011;9108;53.204;10.424;2023-04-06T14:08:28;13.52;;;7.60;;
17965;SDS011;9108;53.204;10.424;2023-04-06T14:10:55;12.35;;;7.65;;
17965;SDS011;9108;53.204;10.424;2023-04-06T14:13:22;15.32;;;8.15;;
17965;SDS011;9108;53.204;10.424;2023-04-06T14:15:52;12.70;;;7.60;;
17965;SDS011;9108;53.204;10.424;2023-04-06T14:18:20;11.85;;;7.32;;
17965;SDS011;9108;53.204;10.424;2023-04-06T14:20:54;13.77;;;8.00;;
17965;SDS011;9108;53.204;10.424;2023-04-06T14:23:22;14.88;;;8.20;;
17965;SDS011;9108;53.204;10.424;2023-04-06T14:25:50;14.23;;;7.80;;
17965;SDS011;9108;53.204;10.424;2023-04-06T14:28:18;11.73;;;7.50;;
17965;SDS011;9108;53.204;10.424;2023-04-06T14:30:48;14.75;;;7.57;;
17965;SDS011;9108;53.204;10.424;2023-04-06T14:33:15;13.68;;;7.53;;
17965;SDS011;9108;53.204;10.424;2023-04-06T14:35:43;14.82;;;7.97;;
17965;SDS011;9108;53.204;10.424;2023-04-06T14:38:11;13.87;;;8.20;;
17965;SDS011;9108;53.204;10.424;2023-04-06T14:40:38;14.75;;;8.32;;
17965;SDS011;9108;53.204;10.424;2023-04-06T14:43:05;13.93;;;7.72;;
17965;SDS011;9108;53.204;10.424;2023-04-06T14:45:36;12.02;;;7.85;;
17965;SDS011;9108;53.204;10.424;2023-04-06T14:48:04;11.77;;;7.22;;
17965;SDS011;9108;53.204;10.424;2023-04-06T14:50:32;15.07;;;7.57;;
17965;SDS011;9108;53.204;10.424;2023-04-06T14:52:59;12.68;;;7.22;;
17965;SDS011;9108;53.204;10.424;2023-04-06T14:55:28;11.30;;;6.85;;